Time;durP1;ratioP1;P1;durP2;ratioP2;P2;SDS_P1;SDS_P2;PMS_P1;PMS_P2;Temp;Humidity;BMP_temperature;BMP_pressure;BME280_temperature;BME280_humidity;BME280_pressure;Samples;Min_cycle;Max_cycle;Signal;HPM_P1;HPM_P2
2022/09/16 00:02:07;;;;;;;12.47;9.10;;;;;;;;;;5115067;27;20672;-65
2022/09/16 00:04:35;;;;;;;8.93;7.33;;;;;;;;;;5106660;27;20219;-64
2022/09/16 00:07:03;;;;;;;9.17;7.13;;;;;;;;;;5114398;27;20653;-65
2022/09/16 00:09:30;;;;;;;11.43;8.27;;;;;;;;;;5116600;27;20296;-65
2022/09/16 00:11:57;;;;;;;9.13;8.23;;;;;;;;;;5115448;27;20314;-65
2022/09/16 00:14:24;;;;;;;10.47;8.37;;;;;;;;;;5114729;27;20261;-65
2022/09/16 00:16:52;;;;;;;10.53;8.33;;;;;;;;;;5114718;27;20195;-65
2022/09/16 00:19:19;;;;;;;11.23;8.73;;;;;;;;;;5115218;27;20203;-65
2022/09/16 00:21:47;;;;;;;10.07;8.80;;;;;;;;;;5132049;27;20299;-65
2022/09/16 00:24:15;;;;;;;10.67;9.57;;;;;;;;;;5114571;27;20717;-65
2022/09/16 00:26:43;;;;;;;11.67;9.60;;;;;;;;;;5114965;27;20290;-65
2022/09/16 00:29:10;;;;;;;10.87;9.57;;;;;;;;;;5109947;27;20299;-65
2022/09/16 00:31:37;;;;;;;11.83;8.97;;;;;;;;;;5114391;27;20671;-65
2022/09/16 00:34:05;;;;;;;11.57;9.57;;;;;;;;;;5114334;27;20223;-65
2022/09/16 00:36:32;;;;;;;11.50;9.50;;;;;;;;;;5113157;27;20752;-65
2022/09/16 00:38:59;;;;;;;13.10;9.60;;;;;;;;;;5114536;27;20288;-65
2022/09/16 00:41:32;;;;;;;10.40;9.37;;;;;;;;;;5114153;27;20318;-64
2022/09/16 00:44:00;;;;;;;14.07;9.70;;;;;;;;;;5109661;27;20355;-65
2022/09/16 00:46:28;;;;;;;10.63;9.53;;;;;;;;;;5113699;27;20203;-65
2022/09/16 00:48:56;;;;;;;10.30;9.30;;;;;;;;;;5114365;27;20638;-65
2022/09/16 00:51:24;;;;;;;11.93;9.60;;;;;;;;;;5113701;27;20211;-65
2022/09/16 00:53:55;;;;;;;10.20;9.10;;;;;;;;;;5114535;27;20227;-64
2022/09/16 00:56:24;;;;;;;11.77;10.13;;;;;;;;;;5114086;27;20196;-65
2022/09/16 00:59:01;;;;;;;10.10;8.87;;;;;;;;;;5113760;27;20207;-65
2022/09/16 01:01:31;;;;;;;10.27;9.23;;;;;;;;;;5114295;27;20763;-65
2022/09/16 01:04:02;;;;;;;10.60;8.43;;;;;;;;;;5114210;27;20319;-65
2022/09/16 01:06:30;;;;;;;10.47;8.80;;;;;;;;;;5114257;27;20292;-65
2022/09/16 01:08:57;;;;;;;9.77;8.80;;;;;;;;;;5115917;27;20340;-65
2022/09/16 01:11:25;;;;;;;13.63;9.40;;;;;;;;;;5133781;27;20215;-65
2022/09/16 01:13:53;;;;;;;12.90;9.13;;;;;;;;;;5129867;27;20224;-65
2022/09/16 01:16:20;;;;;;;11.67;9.03;;;;;;;;;;5115738;27;20734;-65
2022/09/16 01:18:59;;;;;;;13.80;9.37;;;;;;;;;;5115465;27;20257;-66
2022/09/16 01:21:38;;;;;;;12.07;9.87;;;;;;;;;;5114143;27;20306;-65
2022/09/16 01:24:14;;;;;;;9.70;8.70;;;;;;;;;;5114197;27;20254;-65
2022/09/16 01:27:00;;;;;;;11.03;8.77;;;;;;;;;;5113551;27;20290;-65
2022/09/16 01:29:34;;;;;;;11.10;9.83;;;;;;;;;;5120731;27;20223;-64
2022/09/16 01:32:12;;;;;;;11.00;9.90;;;;;;;;;;5113466;27;20234;-65
2022/09/16 01:34:53;;;;;;;13.10;9.23;;;;;;;;;;5096803;27;20314;-65
2022/09/16 01:37:29;;;;;;;10.30;9.20;;;;;;;;;;5113377;27;20199;-65
2022/09/16 01:40:07;;;;;;;11.53;9.70;;;;;;;;;;5113779;27;20230;-65
2022/09/16 01:42:41;;;;;;;13.67;9.50;;;;;;;;;;5113088;27;20255;-64
2022/09/16 01:45:08;;;;;;;13.37;9.90;;;;;;;;;;5113183;27;20294;-65
2022/09/16 01:47:50;;;;;;;12.00;10.47;;;;;;;;;;5112734;27;20631;-65
2022/09/16 01:50:21;;;;;;;12.67;10.07;;;;;;;;;;5113366;27;20205;-65
2022/09/16 01:53:07;;;;;;;12.93;9.83;;;;;;;;;;5113441;27;20223;-65
2022/09/16 01:55:46;;;;;;;10.43;9.43;;;;;;;;;;5112566;27;20730;-65
2022/09/16 01:58:13;;;;;;;12.30;9.83;;;;;;;;;;5126988;27;20282;-65
2022/09/16 02:00:42;;;;;;;13.30;10.37;;;;;;;;;;5120072;27;20199;-65
2022/09/16 02:03:11;;;;;;;11.27;9.83;;;;;;;;;;5108890;28;20649;-65
2022/09/16 02:05:48;;;;;;;12.57;10.23;;;;;;;;;;5112478;28;20192;-63
2022/09/16 02:08:19;;;;;;;12.83;10.17;;;;;;;;;;5113287;27;20330;-63
2022/09/16 02:10:50;;;;;;;12.27;10.03;;;;;;;;;;5116716;27;20294;-65
2022/09/16 02:13:20;;;;;;;12.27;10.07;;;;;;;;;;5119030;27;20209;-65
2022/09/16 02:15:49;;;;;;;14.27;10.73;;;;;;;;;;5119618;27;20290;-65
2022/09/16 02:18:19;;;;;;;12.47;10.23;;;;;;;;;;5116923;27;20200;-65
2022/09/16 02:20:47;;;;;;;14.40;10.73;;;;;;;;;;5118525;27;20657;-65
2022/09/16 02:23:17;;;;;;;12.30;10.60;;;;;;;;;;5119108;27;20299;-63
2022/09/16 02:25:46;;;;;;;12.67;9.90;;;;;;;;;;5120351;27;20673;-64
2022/09/16 02:28:16;;;;;;;11.73;10.37;;;;;;;;;;5118876;27;20235;-64
2022/09/16 02:30:45;;;;;;;13.97;10.43;;;;;;;;;;5119160;27;20188;-64
2022/09/16 02:33:15;;;;;;;11.80;10.57;;;;;;;;;;5118489;27;20207;-65
2022/09/16 02:35:43;;;;;;;13.70;10.60;;;;;;;;;;5118855;27;20226;-65
2022/09/16 02:38:16;;;;;;;13.60;10.97;;;;;;;;;;5116830;27;20260;-65
2022/09/16 02:41:04;;;;;;;13.27;10.50;;;;;;;;;;5118869;27;20196;-63
2022/09/16 02:43:32;;;;;;;13.97;10.73;;;;;;;;;;5132942;27;20734;-65
2022/09/16 02:46:14;;;;;;;13.20;10.57;;;;;;;;;;5120057;27;20278;-65
2022/09/16 02:49:02;;;;;;;14.30;11.10;;;;;;;;;;5119320;27;20604;-65
2022/09/16 02:51:32;;;;;;;12.80;10.80;;;;;;;;;;5119267;27;20278;-63
2022/09/16 02:54:19;;;;;;;13.47;10.43;;;;;;;;;;5118579;27;20262;-64
2022/09/16 02:56:46;;;;;;;13.93;10.63;;;;;;;;;;5098509;28;20211;-64
2022/09/16 02:59:16;;;;;;;12.63;10.37;;;;;;;;;;5119671;27;20202;-65
2022/09/16 03:01:44;;;;;;;12.50;10.27;;;;;;;;;;5118479;27;20250;-65
2022/09/16 03:04:14;;;;;;;14.73;11.03;;;;;;;;;;5119068;27;20219;-65
2022/09/16 03:06:41;;;;;;;13.00;10.60;;;;;;;;;;5118046;27;20290;-65
2022/09/16 03:09:10;;;;;;;13.87;10.53;;;;;;;;;;5118678;27;20640;-64
2022/09/16 03:11:40;;;;;;;12.43;10.03;;;;;;;;;;5119087;27;20256;-64
2022/09/16 03:14:10;;;;;;;14.50;10.50;;;;;;;;;;5118971;27;20266;-64
2022/09/16 03:16:41;;;;;;;11.93;10.20;;;;;;;;;;5120479;27;20203;-65
2022/09/16 03:19:21;;;;;;;13.43;10.23;;;;;;;;;;5118935;27;20207;-63
2022/09/16 03:22:07;;;;;;;11.80;10.00;;;;;;;;;;5115864;27;20246;-65
2022/09/16 03:24:46;;;;;;;11.00;9.83;;;;;;;;;;5107002;27;20219;-65
2022/09/16 03:27:17;;;;;;;11.20;10.00;;;;;;;;;;5115611;27;20188;-65
2022/09/16 03:29:55;;;;;;;10.97;8.93;;;;;;;;;;5114895;27;20203;-66
2022/09/16 03:32:28;;;;;;;11.77;9.67;;;;;;;;;;5115374;27;20202;-65
2022/09/16 03:35:00;;;;;;;12.70;9.67;;;;;;;;;;5115652;27;20318;-65
2022/09/16 03:37:33;;;;;;;12.53;10.47;;;;;;;;;;5114910;27;20632;-65
2022/09/16 03:40:04;;;;;;;13.20;11.10;;;;;;;;;;5115298;27;20208;-65
2022/09/16 03:42:31;;;;;;;10.90;9.83;;;;;;;;;;5114948;27;20219;-65
2022/09/16 03:44:58;;;;;;;15.33;11.13;;;;;;;;;;5114872;27;20298;-65
2022/09/16 03:47:25;;;;;;;12.67;10.10;;;;;;;;;;5114902;27;20480;-65
2022/09/16 03:49:53;;;;;;;14.97;10.53;;;;;;;;;;5115525;27;20283;-65
2022/09/16 03:52:20;;;;;;;13.80;11.03;;;;;;;;;;5115036;27;20204;-64
2022/09/16 03:54:47;;;;;;;13.40;12.00;;;;;;;;;;5115322;27;20225;-64
2022/09/16 03:57:29;;;;;;;13.03;11.00;;;;;;;;;;5114795;27;20208;-63
2022/09/16 03:59:56;;;;;;;16.23;10.30;;;;;;;;;;5113742;27;20225;-65
2022/09/16 04:02:23;;;;;;;14.40;10.80;;;;;;;;;;5114911;27;20253;-65
2022/09/16 04:04:52;;;;;;;13.20;9.40;;;;;;;;;;5115696;27;20232;-65
2022/09/16 04:07:19;;;;;;;14.50;11.60;;;;;;;;;;5116004;27;20287;-64
2022/09/16 04:09:46;;;;;;;11.33;10.07;;;;;;;;;;5128467;27;20294;-66
2022/09/16 04:12:14;;;;;;;12.27;10.50;;;;;;;;;;5132846;27;20208;-66
2022/09/16 04:14:41;;;;;;;12.43;9.60;;;;;;;;;;5115519;27;20655;-66
2022/09/16 04:17:09;;;;;;;13.17;10.70;;;;;;;;;;5115201;27;20528;-65
2022/09/16 04:19:36;;;;;;;13.00;10.17;;;;;;;;;;5115371;27;20291;-65
2022/09/16 04:22:03;;;;;;;14.70;10.97;;;;;;;;;;5115141;27;20227;-66
2022/09/16 04:24:31;;;;;;;13.30;10.57;;;;;;;;;;5119611;27;20310;-66
2022/09/16 04:26:58;;;;;;;15.70;10.37;;;;;;;;;;5142753;27;20751;-66
2022/09/16 04:29:26;;;;;;;10.87;9.63;;;;;;;;;;5119162;27;20259;-65
2022/09/16 04:31:54;;;;;;;14.40;10.10;;;;;;;;;;5114936;27;20204;-65
2022/09/16 04:34:22;;;;;;;13.57;10.97;;;;;;;;;;5135643;27;20306;-65
2022/09/16 04:36:49;;;;;;;14.00;11.00;;;;;;;;;;5120296;27;20283;-65
2022/09/16 04:39:16;;;;;;;11.10;9.43;;;;;;;;;;5114045;27;20294;-66
2022/09/16 04:41:44;;;;;;;13.80;10.73;;;;;;;;;;5115055;27;20701;-65
2022/09/16 04:44:11;;;;;;;11.97;9.30;;;;;;;;;;5110792;27;20302;-65
2022/09/16 04:46:38;;;;;;;13.23;10.40;;;;;;;;;;5113941;27;20286;-65
2022/09/16 04:49:05;;;;;;;11.37;9.80;;;;;;;;;;5114676;27;20256;-64
2022/09/16 04:51:33;;;;;;;16.00;9.80;;;;;;;;;;5114016;27;20693;-66
2022/09/16 04:54:00;;;;;;;11.40;9.40;;;;;;;;;;5113743;27;20740;-65
2022/09/16 04:56:30;;;;;;;12.43;10.60;;;;;;;;;;5114387;27;20199;-65
2022/09/16 04:59:01;;;;;;;12.30;9.87;;;;;;;;;;5114319;27;20298;-66
2022/09/16 05:01:30;;;;;;;10.90;9.77;;;;;;;;;;5113642;27;20218;-66
2022/09/16 05:03:58;;;;;;;12.93;10.70;;;;;;;;;;5113464;27;20220;-66
2022/09/16 05:06:27;;;;;;;11.23;10.03;;;;;;;;;;5112126;27;20715;-65
2022/09/16 05:08:55;;;;;;;13.07;10.20;;;;;;;;;;5108221;27;20274;-65
2022/09/16 05:11:24;;;;;;;12.43;9.97;;;;;;;;;;5113872;27;20303;-65
2022/09/16 05:13:51;;;;;;;11.90;9.23;;;;;;;;;;5112967;27;20727;-65
2022/09/16 05:16:20;;;;;;;11.67;9.73;;;;;;;;;;5114894;27;20298;-65
2022/09/16 05:18:49;;;;;;;13.67;11.07;;;;;;;;;;5113240;27;20203;-66
2022/09/16 05:21:18;;;;;;;12.33;10.63;;;;;;;;;;5124772;27;20555;-67
2022/09/16 05:23:45;;;;;;;13.20;11.23;;;;;;;;;;5112944;27;20306;-65
2022/09/16 05:26:13;;;;;;;13.83;11.17;;;;;;;;;;5113562;27;20569;-65
2022/09/16 05:28:41;;;;;;;13.03;11.33;;;;;;;;;;5112724;27;20760;-66
2022/09/16 05:31:16;;;;;;;12.80;10.47;;;;;;;;;;5148093;27;20668;-65
2022/09/16 05:33:45;;;;;;;13.93;10.83;;;;;;;;;;5115279;27;20680;-65
2022/09/16 05:36:17;;;;;;;15.07;10.77;;;;;;;;;;5109755;27;20665;-66
2022/09/16 05:38:45;;;;;;;13.07;10.20;;;;;;;;;;5113006;27;20282;-66
2022/09/16 05:41:32;;;;;;;11.53;9.87;;;;;;;;;;5115661;27;20191;-64
2022/09/16 05:44:00;;;;;;;14.93;10.57;;;;;;;;;;5112677;27;20219;-66
2022/09/16 05:46:28;;;;;;;11.07;9.67;;;;;;;;;;5112331;27;20677;-65
2022/09/16 05:48:56;;;;;;;11.47;10.27;;;;;;;;;;5113520;27;20694;-66
2022/09/16 05:51:24;;;;;;;11.17;10.00;;;;;;;;;;5106754;27;20282;-65
2022/09/16 05:53:52;;;;;;;10.97;9.77;;;;;;;;;;5112814;27;20259;-66
2022/09/16 05:56:21;;;;;;;12.90;10.10;;;;;;;;;;5112879;27;20481;-65
2022/09/16 05:58:50;;;;;;;11.67;10.17;;;;;;;;;;5111912;28;20229;-65
2022/09/16 06:01:19;;;;;;;11.33;10.17;;;;;;;;;;5130710;27;20217;-65
2022/09/16 06:03:47;;;;;;;11.00;9.90;;;;;;;;;;5112893;28;20254;-65
2022/09/16 06:06:18;;;;;;;12.20;10.23;;;;;;;;;;5112803;27;20731;-65
2022/09/16 06:08:45;;;;;;;12.80;9.97;;;;;;;;;;5112435;28;20274;-65
2022/09/16 06:11:13;;;;;;;10.80;9.70;;;;;;;;;;5110583;28;20208;-65
2022/09/16 06:13:40;;;;;;;12.47;10.10;;;;;;;;;;5112245;28;20306;-65
2022/09/16 06:16:08;;;;;;;11.40;9.95;;;;;;;;;;5112234;28;20203;-65
2022/09/16 06:18:36;;;;;;;11.87;10.67;;;;;;;;;;5112896;28;20290;-64
2022/09/16 06:21:06;;;;;;;10.57;9.47;;;;;;;;;;5112762;28;20227;-66
2022/09/16 06:23:34;;;;;;;11.68;10.20;;;;;;;;;;5110631;27;20231;-66
2022/09/16 06:26:09;;;;;;;11.00;9.87;;;;;;;;;;5132754;27;20290;-66
2022/09/16 06:28:36;;;;;;;11.77;10.57;;;;;;;;;;5118313;28;20286;-66
2022/09/16 06:31:14;;;;;;;12.63;10.13;;;;;;;;;;5112603;28;20287;-64
2022/09/16 06:33:41;;;;;;;14.27;10.27;;;;;;;;;;5112801;28;20222;-66
2022/09/16 06:36:13;;;;;;;10.60;9.60;;;;;;;;;;5112328;28;20956;-66
2022/09/16 06:38:40;;;;;;;11.55;10.35;;;;;;;;;;5112851;28;20205;-66
2022/09/16 06:41:09;;;;;;;14.23;11.07;;;;;;;;;;5131080;27;20305;-67
2022/09/16 06:43:36;;;;;;;14.18;12.45;;;;;;;;;;5112133;28;20616;-65
2022/09/16 06:46:05;;;;;;;13.70;12.03;;;;;;;;;;5112622;28;20199;-63
2022/09/16 06:48:32;;;;;;;13.18;11.77;;;;;;;;;;5112393;28;20248;-66
2022/09/16 06:51:01;;;;;;;14.80;12.52;;;;;;;;;;5112613;28;20272;-65
2022/09/16 06:53:29;;;;;;;13.67;11.37;;;;;;;;;;5112259;28;20753;-67
2022/09/16 06:56:00;;;;;;;12.95;11.65;;;;;;;;;;5113007;27;20364;-66
2022/09/16 06:58:30;;;;;;;13.43;12.00;;;;;;;;;;5116008;27;20642;-66
2022/09/16 07:00:58;;;;;;;13.20;11.80;;;;;;;;;;5115959;27;20636;-64
2022/09/16 07:03:25;;;;;;;12.20;10.88;;;;;;;;;;5115854;27;20606;-67
2022/09/16 07:06:02;;;;;;;13.67;11.70;;;;;;;;;;5115281;27;20206;-67
2022/09/16 07:08:31;;;;;;;13.00;11.32;;;;;;;;;;5134053;27;20199;-65
2022/09/16 07:10:58;;;;;;;12.85;11.10;;;;;;;;;;5116190;27;20201;-64
2022/09/16 07:13:26;;;;;;;11.25;10.07;;;;;;;;;;5115973;27;20390;-64
2022/09/16 07:15:53;;;;;;;13.68;10.98;;;;;;;;;;5134065;27;20260;-66
2022/09/16 07:18:39;;;;;;;13.13;11.48;;;;;;;;;;5117012;27;20273;-66
2022/09/16 07:21:10;;;;;;;14.93;11.90;;;;;;;;;;5115519;27;20287;-66
2022/09/16 07:23:38;;;;;;;12.68;11.05;;;;;;;;;;5132933;27;20282;-65
2022/09/16 07:26:10;;;;;;;14.18;11.57;;;;;;;;;;5129344;27;20200;-67
2022/09/16 07:28:38;;;;;;;11.77;10.57;;;;;;;;;;5127370;27;20226;-66
2022/09/16 07:31:07;;;;;;;12.20;10.85;;;;;;;;;;5118025;27;20298;-66
2022/09/16 07:33:39;;;;;;;13.02;11.63;;;;;;;;;;5124120;27;20659;-65
2022/09/16 07:36:07;;;;;;;12.27;11.05;;;;;;;;;;5115548;27;20200;-66
2022/09/16 07:38:35;;;;;;;13.00;11.63;;;;;;;;;;5115755;27;20302;-65
2022/09/16 07:41:06;;;;;;;12.90;10.85;;;;;;;;;;5115564;27;20262;-65
2022/09/16 07:43:33;;;;;;;10.18;9.18;;;;;;;;;;5115054;27;20692;-66
2022/09/16 07:46:01;;;;;;;3.90;3.60;;;;;;;;;;5114929;27;20736;-64
2022/09/16 07:48:29;;;;;;;3.30;2.78;;;;;;;;;;5119980;27;20218;-66
2022/09/16 07:51:02;;;;;;;3.13;2.93;;;;;;;;;;5125286;27;20248;-65
2022/09/16 07:53:30;;;;;;;3.73;3.43;;;;;;;;;;5114557;27;20227;-67
2022/09/16 07:56:08;;;;;;;3.90;3.60;;;;;;;;;;5115222;27;20230;-65
2022/09/16 07:58:37;;;;;;;4.60;4.20;;;;;;;;;;5114428;27;20286;-66
2022/09/16 08:01:06;;;;;;;3.83;3.53;;;;;;;;;;5114982;27;20243;-66
2022/09/16 08:03:34;;;;;;;3.93;3.63;;;;;;;;;;5115139;27;20239;-65
2022/09/16 08:06:02;;;;;;;4.07;3.77;;;;;;;;;;5114312;27;20200;-63
2022/09/16 08:08:30;;;;;;;4.20;3.90;;;;;;;;;;5114004;27;20200;-65
2022/09/16 08:10:58;;;;;;;4.60;4.17;;;;;;;;;;5115286;27;20279;-64
2022/09/16 08:13:27;;;;;;;4.27;3.97;;;;;;;;;;5114114;27;20723;-66
2022/09/16 08:15:55;;;;;;;4.57;4.17;;;;;;;;;;5114524;27;20239;-67
2022/09/16 08:18:23;;;;;;;4.10;3.80;;;;;;;;;;5114732;27;20296;-63
2022/09/16 08:20:50;;;;;;;3.53;3.33;;;;;;;;;;5114255;27;20830;-65
2022/09/16 08:23:17;;;;;;;4.00;3.70;;;;;;;;;;5114602;27;20231;-67
2022/09/16 08:25:45;;;;;;;4.20;3.90;;;;;;;;;;5114297;27;20199;-63
2022/09/16 08:28:14;;;;;;;3.50;3.23;;;;;;;;;;5113788;27;20271;-66
2022/09/16 08:30:41;;;;;;;3.60;3.30;;;;;;;;;;5114213;27;20195;-66
2022/09/16 08:33:09;;;;;;;3.70;3.40;;;;;;;;;;5114460;27;20312;-66
2022/09/16 08:35:37;;;;;;;3.30;3.10;;;;;;;;;;5132800;27;20295;-67
2022/09/16 08:38:05;;;;;;;3.13;2.93;;;;;;;;;;5114283;27;20295;-64
2022/09/16 08:40:34;;;;;;;3.50;3.20;;;;;;;;;;5114877;27;20683;-65
2022/09/16 08:43:01;;;;;;;3.50;3.30;;;;;;;;;;5113943;27;20258;-65
2022/09/16 08:45:29;;;;;;;3.23;2.93;;;;;;;;;;5132203;27;20199;-65
2022/09/16 08:48:22;;;;;;;2.80;2.60;;;;;;;;;;5114022;27;20203;-65
2022/09/16 08:50:55;;;;;;;2.60;2.40;;;;;;;;;;5127527;27;20286;-65
2022/09/16 08:53:25;;;;;;;2.60;2.40;;;;;;;;;;5113744;27;20258;-65
2022/09/16 08:55:53;;;;;;;2.70;2.50;;;;;;;;;;5113917;27;20294;-65
2022/09/16 08:58:23;;;;;;;2.83;2.63;;;;;;;;;;5113510;27;20322;-65
2022/09/16 09:00:58;;;;;;;5.40;2.83;;;;;;;;;;5114396;27;20207;-65
2022/09/16 09:03:31;;;;;;;3.10;2.90;;;;;;;;;;5114611;27;20223;-65
2022/09/16 09:06:00;;;;;;;3.43;3.03;;;;;;;;;;5112938;27;20290;-65
2022/09/16 09:08:51;;;;;;;3.17;2.97;;;;;;;;;;5114062;27;20239;-65
2022/09/16 09:11:27;;;;;;;4.00;3.70;;;;;;;;;;5114173;27;20282;-65
2022/09/16 09:14:02;;;;;;;4.03;3.63;;;;;;;;;;5122108;27;20317;-67
2022/09/16 09:16:39;;;;;;;4.80;4.40;;;;;;;;;;5134013;27;20238;-65
2022/09/16 09:19:10;;;;;;;3.50;3.20;;;;;;;;;;5133666;27;20218;-65
2022/09/16 09:21:46;;;;;;;2.80;2.60;;;;;;;;;;5134327;27;20292;-65
2022/09/16 09:24:22;;;;;;;3.30;3.00;;;;;;;;;;5134523;27;20237;-65
2022/09/16 09:26:51;;;;;;;3.10;2.90;;;;;;;;;;5129251;27;20298;-65
2022/09/16 09:29:37;;;;;;;3.03;2.83;;;;;;;;;;5113734;27;20658;-68
2022/09/16 09:32:25;;;;;;;3.20;3.00;;;;;;;;;;5132333;27;20206;-66
2022/09/16 09:34:55;;;;;;;2.40;2.20;;;;;;;;;;5133983;27;20226;-65
2022/09/16 09:37:28;;;;;;;2.50;2.40;;;;;;;;;;5133756;27;20203;-65
2022/09/16 09:40:07;;;;;;;2.70;2.50;;;;;;;;;;5133791;27;20668;-65
2022/09/16 09:42:46;;;;;;;1.90;1.80;;;;;;;;;;5133566;27;20255;-65
2022/09/16 09:45:13;;;;;;;2.17;2.07;;;;;;;;;;5115777;27;20226;-67
2022/09/16 09:47:53;;;;;;;3.10;2.60;;;;;;;;;;5112929;27;20237;-65
2022/09/16 09:50:39;;;;;;;2.60;2.47;;;;;;;;;;5113143;27;20285;-64
2022/09/16 09:53:26;;;;;;;2.23;2.13;;;;;;;;;;5113093;27;20274;-66
2022/09/16 09:55:59;;;;;;;2.30;2.10;;;;;;;;;;5112231;27;20204;-66
2022/09/16 09:58:36;;;;;;;2.13;2.03;;;;;;;;;;5118860;27;20220;-67
2022/09/16 10:01:03;;;;;;;2.10;2.00;;;;;;;;;;5135404;27;20215;-66
2022/09/16 10:03:30;;;;;;;2.20;2.10;;;;;;;;;;5115913;28;20266;-66
2022/09/16 10:05:58;;;;;;;2.70;2.50;;;;;;;;;;5130040;27;20281;-66
2022/09/16 10:08:45;;;;;;;2.43;2.20;;;;;;;;;;5133495;27;20202;-63
2022/09/16 10:11:23;;;;;;;2.80;2.57;;;;;;;;;;5133473;27;20646;-65
2022/09/16 10:13:52;;;;;;;3.03;2.83;;;;;;;;;;5124426;28;20683;-65
2022/09/16 10:16:21;;;;;;;3.27;2.87;;;;;;;;;;5112408;28;20740;-66
2022/09/16 10:19:04;;;;;;;2.83;2.63;;;;;;;;;;5112487;28;20267;-67
2022/09/16 10:21:44;;;;;;;3.10;2.90;;;;;;;;;;5113317;28;20294;-66
2022/09/16 10:24:31;;;;;;;3.13;2.93;;;;;;;;;;5112472;28;20231;-65
2022/09/16 10:26:59;;;;;;;2.93;2.70;;;;;;;;;;5112850;28;20286;-65
2022/09/16 10:29:26;;;;;;;3.00;2.80;;;;;;;;;;5112301;28;20204;-65
2022/09/16 10:31:54;;;;;;;3.10;2.90;;;;;;;;;;5133510;27;20760;-66
2022/09/16 10:34:38;;;;;;;4.57;3.07;;;;;;;;;;5118197;27;20238;-67
2022/09/16 10:37:12;;;;;;;3.23;3.03;;;;;;;;;;5139652;27;20316;-68
2022/09/16 10:40:01;;;;;;;3.17;2.97;;;;;;;;;;5138276;27;20214;-63
2022/09/16 10:42:29;;;;;;;2.97;2.77;;;;;;;;;;5150542;27;20206;-63
2022/09/16 10:45:01;;;;;;;3.30;3.00;;;;;;;;;;5117049;27;20330;-66
2022/09/16 10:47:31;;;;;;;3.20;2.90;;;;;;;;;;5116569;27;20303;-67
2022/09/16 10:50:05;;;;;;;3.50;3.27;;;;;;;;;;5116318;27;20207;-66
2022/09/16 10:52:43;;;;;;;3.10;2.90;;;;;;;;;;5116115;27;20471;-64
2022/09/16 10:55:17;;;;;;;4.87;3.13;;;;;;;;;;5116350;27;20286;-65
2022/09/16 10:57:44;;;;;;;3.17;2.90;;;;;;;;;;5111006;28;20279;-65
2022/09/16 11:00:16;;;;;;;4.00;3.40;;;;;;;;;;5113005;27;20199;-66
2022/09/16 11:02:58;;;;;;;3.43;3.07;;;;;;;;;;5116222;27;20290;-66
2022/09/16 11:05:28;;;;;;;4.07;3.67;;;;;;;;;;5130250;27;20654;-66
2022/09/16 11:07:56;;;;;;;4.07;3.77;;;;;;;;;;5115865;27;20299;-67
2022/09/16 11:10:38;;;;;;;4.77;4.03;;;;;;;;;;5115663;27;20353;-65
2022/09/16 11:13:17;;;;;;;4.40;3.87;;;;;;;;;;5117642;27;20206;-66
2022/09/16 11:16:09;;;;;;;4.60;4.23;;;;;;;;;;5125861;27;20357;-65
2022/09/16 11:18:44;;;;;;;5.50;4.67;;;;;;;;;;5112527;28;20204;-65
2022/09/16 11:21:18;;;;;;;5.93;4.37;;;;;;;;;;5096669;28;20249;-65
2022/09/16 11:23:51;;;;;;;7.43;4.20;;;;;;;;;;5095720;28;20311;-65
2022/09/16 11:26:22;;;;;;;4.90;4.50;;;;;;;;;;5095609;28;20321;-65
2022/09/16 11:28:55;;;;;;;5.63;4.37;;;;;;;;;;5110661;27;20207;-65
2022/09/16 11:31:29;;;;;;;4.70;4.30;;;;;;;;;;5115861;27;20653;-65
2022/09/16 11:33:56;;;;;;;4.90;4.07;;;;;;;;;;5116183;27;20223;-65
2022/09/16 11:36:42;;;;;;;6.13;3.70;;;;;;;;;;5115444;27;20252;-65
2022/09/16 11:39:13;;;;;;;4.40;3.50;;;;;;;;;;5115790;27;20291;-66
2022/09/16 11:41:49;;;;;;;4.90;3.20;;;;;;;;;;5112732;27;20439;-65
2022/09/16 11:44:26;;;;;;;4.23;2.90;;;;;;;;;;5111594;27;20229;-67
2022/09/16 11:46:53;;;;;;;6.87;2.90;;;;;;;;;;5115835;27;20225;-65
2022/09/16 11:49:27;;;;;;;5.23;3.10;;;;;;;;;;5113980;27;20208;-66
2022/09/16 11:52:01;;;;;;;4.83;3.50;;;;;;;;;;5115179;27;20833;-65
2022/09/16 11:54:47;;;;;;;4.90;4.10;;;;;;;;;;5115092;27;20306;-65
2022/09/16 11:57:19;;;;;;;3.65;2.72;;;;;;;;;;5114097;27;20851;-65
2022/09/16 12:00:13;;;;;;;4.78;2.40;;;;;;;;;;5115305;27;20256;-65
2022/09/16 12:02:43;;;;;;;5.10;2.40;;;;;;;;;;5112208;27;20212;-65
2022/09/16 12:05:44;;;;;;;6.40;2.30;;;;;;;;;;5121857;27;20310;-66
2022/09/16 12:08:44;;;;;;;4.50;1.70;;;;;;;;;;5069172;28;20204;-67
2022/09/16 12:11:18;;;;;;;5.13;1.60;;;;;;;;;;5057283;27;20283;-66
2022/09/16 12:13:48;;;;;;;1.90;1.70;;;;;;;;;;5114405;27;20251;-66
2022/09/16 12:16:17;;;;;;;3.58;1.75;;;;;;;;;;5114597;27;20295;-66
2022/09/16 12:18:52;;;;;;;1.50;1.40;;;;;;;;;;5114546;27;20195;-65
2022/09/16 12:21:29;;;;;;;2.22;1.85;;;;;;;;;;5114089;27;20211;-64
2022/09/16 12:24:15;;;;;;;4.03;1.30;;;;;;;;;;5114701;27;20223;-66
2022/09/16 12:27:11;;;;;;;4.03;1.60;;;;;;;;;;5114522;27;20616;-66
2022/09/16 12:30:11;;;;;;;2.60;1.60;;;;;;;;;;5056779;28;20191;-65
2022/09/16 12:32:47;;;;;;;2.63;2.00;;;;;;;;;;5050492;28;20200;-66
2022/09/16 12:35:16;;;;;;;3.85;1.88;;;;;;;;;;5130470;27;20319;-67
2022/09/16 12:37:44;;;;;;;3.28;2.05;;;;;;;;;;5133666;27;20637;-65
2022/09/16 12:40:15;;;;;;;3.17;1.98;;;;;;;;;;5109052;27;20214;-65
2022/09/16 12:42:46;;;;;;;3.75;1.90;;;;;;;;;;5114180;27;20684;-65
2022/09/16 12:45:46;;;;;;;2.83;1.48;;;;;;;;;;5114442;27;20223;-67
2022/09/16 12:48:13;;;;;;;4.78;1.70;;;;;;;;;;5091281;27;20239;-68
2022/09/16 12:50:47;;;;;;;2.00;1.80;;;;;;;;;;5126828;27;20200;-65
2022/09/16 12:53:33;;;;;;;3.58;2.00;;;;;;;;;;5114317;27;20202;-66
2022/09/16 12:56:00;;;;;;;1.90;1.70;;;;;;;;;;5114452;27;20292;-66
2022/09/16 12:58:28;;;;;;;2.85;1.80;;;;;;;;;;5113919;27;20744;-68
2022/09/16 13:01:03;;;;;;;3.00;1.83;;;;;;;;;;5114000;27;20286;-64
2022/09/16 13:03:31;;;;;;;2.95;2.10;;;;;;;;;;5113835;27;20380;-64
2022/09/16 13:06:04;;;;;;;2.97;2.20;;;;;;;;;;5113510;27;20204;-66
2022/09/16 13:08:33;;;;;;;4.95;2.42;;;;;;;;;;5114001;27;20663;-66
2022/09/16 13:11:05;;;;;;;3.17;1.85;;;;;;;;;;5132282;27;20736;-66
2022/09/16 13:13:54;;;;;;;4.18;2.15;;;;;;;;;;5116490;27;20720;-66
2022/09/16 13:16:28;;;;;;;3.13;2.03;;;;;;;;;;5112125;27;20594;-66
2022/09/16 13:19:04;;;;;;;7.50;2.20;;;;;;;;;;5113800;27;20203;-66
2022/09/16 13:21:39;;;;;;;4.18;2.30;;;;;;;;;;5114073;27;20203;-66
2022/09/16 13:24:27;;;;;;;3.97;2.50;;;;;;;;;;5113741;27;20231;-65
2022/09/16 13:26:56;;;;;;;4.43;2.40;;;;;;;;;;5112960;27;20231;-65
2022/09/16 13:29:29;;;;;;;4.72;2.97;;;;;;;;;;5113884;27;20288;-65
2022/09/16 13:31:57;;;;;;;2.78;2.58;;;;;;;;;;5113875;27;20286;-64
2022/09/16 13:34:24;;;;;;;6.82;2.45;;;;;;;;;;5113247;27;20227;-66
2022/09/16 13:36:51;;;;;;;4.22;2.80;;;;;;;;;;5114084;27;20301;-67
2022/09/16 13:39:29;;;;;;;3.13;2.47;;;;;;;;;;5114529;27;20609;-66
2022/09/16 13:41:56;;;;;;;5.28;3.15;;;;;;;;;;5113387;27;20238;-66
2022/09/16 13:44:30;;;;;;;5.22;2.80;;;;;;;;;;5113384;27;20227;-65
2022/09/16 13:47:10;;;;;;;5.65;2.63;;;;;;;;;;5113636;27;20298;-67
2022/09/16 13:49:49;;;;;;;6.35;2.75;;;;;;;;;;5105691;27;20191;-66
2022/09/16 13:52:19;;;;;;;4.32;2.67;;;;;;;;;;5113253;27;20201;-66
2022/09/16 13:54:51;;;;;;;4.20;2.78;;;;;;;;;;5112288;27;20234;-66
2022/09/16 13:57:44;;;;;;;4.30;2.42;;;;;;;;;;5107587;27;20215;-66
2022/09/16 14:00:19;;;;;;;3.97;2.92;;;;;;;;;;5113271;27;20294;-66
2022/09/16 14:02:50;;;;;;;3.53;2.78;;;;;;;;;;5110359;28;20226;-66
2022/09/16 14:05:36;;;;;;;3.40;3.00;;;;;;;;;;5109466;28;20619;-66
2022/09/16 14:08:10;;;;;;;3.07;2.80;;;;;;;;;;5112547;28;20199;-66
2022/09/16 14:10:50;;;;;;;5.13;2.27;;;;;;;;;;5113106;28;20747;-64
2022/09/16 14:13:19;;;;;;;3.30;2.70;;;;;;;;;;5110565;28;20756;-67
2022/09/16 14:15:49;;;;;;;5.40;2.50;;;;;;;;;;5112986;28;20673;-66
2022/09/16 14:18:18;;;;;;;2.93;2.13;;;;;;;;;;5112903;28;20230;-66
2022/09/16 14:21:01;;;;;;;3.20;2.20;;;;;;;;;;5114558;28;20239;-67
2022/09/16 14:23:28;;;;;;;2.50;2.30;;;;;;;;;;5112876;28;20687;-65
2022/09/16 14:25:56;;;;;;;3.53;2.33;;;;;;;;;;5112203;28;20318;-66
2022/09/16 14:28:25;;;;;;;2.97;1.80;;;;;;;;;;5112235;28;20199;-67
2022/09/16 14:31:02;;;;;;;4.07;2.10;;;;;;;;;;5130880;28;20215;-66
2022/09/16 14:33:35;;;;;;;2.20;1.98;;;;;;;;;;5112100;28;20231;-67
2022/09/16 14:36:14;;;;;;;3.70;1.88;;;;;;;;;;5112647;27;20757;-64
2022/09/16 14:38:44;;;;;;;3.50;2.15;;;;;;;;;;5130962;28;20209;-65
2022/09/16 14:41:19;;;;;;;2.28;2.05;;;;;;;;;;5111744;28;20207;-66
2022/09/16 14:43:46;;;;;;;3.47;1.90;;;;;;;;;;5112668;28;20310;-65
2022/09/16 14:46:15;;;;;;;1.85;1.70;;;;;;;;;;5112406;28;20298;-66
2022/09/16 14:48:43;;;;;;;4.70;2.00;;;;;;;;;;5112448;28;20199;-66
2022/09/16 14:51:16;;;;;;;3.05;1.92;;;;;;;;;;5112318;28;20290;-66
2022/09/16 14:53:52;;;;;;;2.63;1.67;;;;;;;;;;5112555;28;20245;-65
2022/09/16 14:56:38;;;;;;;2.88;1.83;;;;;;;;;;5115126;28;20208;-66
2022/09/16 14:59:07;;;;;;;4.35;1.90;;;;;;;;;;5112081;28;20219;-64
2022/09/16 15:01:34;;;;;;;2.30;2.00;;;;;;;;;;5112352;28;20230;-65
2022/09/16 15:04:06;;;;;;;2.15;1.95;;;;;;;;;;5108727;28;20224;-64